Time;durP1;ratioP1;P1;durP2;ratioP2;P2;SDS_P1;SDS_P2;PMS_P1;PMS_P2;Temp;Humidity;BMP_temperature;BMP_pressure;BME280_temperature;BME280_humidity;BME280_pressure;Samples;Min_cycle;Max_cycle;Signal;HPM_P1;HPM_P2
2024/02/19 05:00:49;;;;;;;2.17;2.00;;;7.20;97.30;;;;;;5894622;23;20514;-85
2024/02/19 05:03:15;;;;;;;0.87;0.77;;;7.20;97.30;;;;;;4969603;28;20815;-90
2024/02/19 05:05:40;;;;;;;0.90;0.80;;;7.20;97.30;;;;;;4964654;28;20431;-89
2024/02/19 05:08:22;;;;;;;0.87;0.77;;;7.20;97.30;;;;;;4961951;28;20286;-89
2024/02/19 05:10:52;;;;;;;0.90;0.80;;;7.10;97.30;;;;;;4944368;29;20647;-89
2024/02/19 05:13:21;;;;;;;0.90;0.80;;;7.10;97.30;;;;;;4950237;29;20453;-88
2024/02/19 05:15:51;;;;;;;0.90;0.80;;;7.00;97.30;;;;;;4943627;29;20470;-90
2024/02/19 05:18:20;;;;;;;1.00;0.90;;;7.00;97.30;;;;;;4945473;29;20461;-91
2024/02/19 05:20:45;;;;;;;0.90;0.80;;;7.00;97.30;;;;;;4960683;23;20481;-83
2024/02/19 05:23:11;;;;;;;0.90;0.80;;;7.00;97.30;;;;;;4963599;28;20445;-75
2024/02/19 05:25:37;;;;;;;1.00;0.90;;;6.90;97.30;;;;;;4962385;28;20186;-77
2024/02/19 05:28:02;;;;;;;1.00;0.90;;;6.90;97.30;;;;;;4963707;28;20411;-77
2024/02/19 05:30:28;;;;;;;0.93;0.83;;;6.90;97.30;;;;;;4959668;28;20218;-78
2024/02/19 05:32:54;;;;;;;0.90;0.80;;;6.90;97.30;;;;;;4948351;28;20187;-76
2024/02/19 05:35:20;;;;;;;0.90;0.80;;;6.90;97.30;;;;;;4946437;29;20663;-78
2024/02/19 05:37:46;;;;;;;1.00;0.90;;;7.00;97.30;;;;;;4947584;29;20207;-79
2024/02/19 05:40:12;;;;;;;0.80;0.70;;;7.00;97.30;;;;;;4942382;28;20494;-74
2024/02/19 05:42:38;;;;;;;0.87;0.77;;;7.00;97.30;;;;;;4944719;29;20426;-76
2024/02/19 05:45:04;;;;;;;0.90;0.80;;;7.00;97.30;;;;;;4940498;29;20432;-77
2024/02/19 05:47:29;;;;;;;0.90;0.80;;;7.00;97.30;;;;;;4936367;29;20190;-78
2024/02/19 05:49:55;;;;;;;1.00;0.90;;;7.10;97.30;;;;;;4942414;29;20444;-78
2024/02/19 05:52:20;;;;;;;0.90;0.80;;;7.10;97.30;;;;;;4949398;29;20198;-75
2024/02/19 05:54:46;;;;;;;1.00;0.90;;;7.10;97.30;;;;;;4944112;28;20195;-78
2024/02/19 05:57:11;;;;;;;52.03;1.83;;;7.10;97.30;;;;;;4944192;29;20274;-78
2024/02/19 05:59:37;;;;;;;0.90;0.80;;;7.10;97.30;;;;;;4944187;29;20250;-78
2024/02/19 06:02:03;;;;;;;0.90;0.80;;;7.10;97.30;;;;;;4946788;28;20238;-74
2024/02/19 06:04:28;;;;;;;0.80;0.70;;;7.20;97.30;;;;;;4947805;29;20576;-77
2024/02/19 06:06:54;;;;;;;0.90;0.80;;;7.20;97.30;;;;;;4944423;29;20176;-77
2024/02/19 06:09:19;;;;;;;0.90;0.80;;;7.20;97.30;;;;;;4934115;29;20329;-87
2024/02/19 06:11:45;;;;;;;0.80;0.70;;;7.20;97.30;;;;;;4946265;29;20250;-85
2024/02/19 06:14:11;;;;;;;1.00;0.90;;;7.20;97.30;;;;;;4939433;28;20188;-76
2024/02/19 06:16:37;;;;;;;0.87;0.77;;;7.20;97.30;;;;;;4932865;29;20846;-83
2024/02/19 06:19:03;;;;;;;0.90;0.80;;;7.30;97.30;;;;;;4932925;29;20431;-85
2024/02/19 06:21:28;;;;;;;0.90;0.80;;;7.30;97.30;;;;;;4943906;29;20322;-85
2024/02/19 06:23:54;;;;;;;1.00;0.90;;;7.30;97.30;;;;;;4935493;29;20776;-79
2024/02/19 06:26:20;;;;;;;0.90;0.80;;;7.30;97.30;;;;;;4935065;29;20179;-82
2024/02/19 06:28:46;;;;;;;0.90;0.80;;;7.30;97.30;;;;;;4945404;29;20462;-81
2024/02/19 06:31:11;;;;;;;0.90;0.80;;;7.30;97.30;;;;;;4934469;29;20447;-84
2024/02/19 06:33:37;;;;;;;0.90;0.80;;;7.30;97.30;;;;;;4933849;29;20188;-75
2024/02/19 06:36:03;;;;;;;1.00;0.90;;;7.30;97.30;;;;;;4932497;29;20188;-72
2024/02/19 06:38:29;;;;;;;0.90;0.80;;;7.30;97.30;;;;;;4934198;29;20291;-81
2024/02/19 06:40:55;;;;;;;1.10;1.00;;;7.30;97.30;;;;;;4939358;29;20545;-71
2024/02/19 06:43:21;;;;;;;0.90;0.80;;;7.40;97.30;;;;;;4941702;29;20943;-66
2024/02/19 06:45:47;;;;;;;0.90;0.80;;;7.40;97.30;;;;;;4939854;29;20423;-80
2024/02/19 06:48:12;;;;;;;0.90;0.80;;;7.40;97.30;;;;;;4949709;29;20203;-69
2024/02/19 06:50:38;;;;;;;0.80;0.70;;;7.40;97.30;;;;;;4941300;29;20214;-77
2024/02/19 06:53:06;;;;;;;1.20;1.10;;;7.40;97.30;;;;;;4941335;29;20183;-76
2024/02/19 06:55:31;;;;;;;0.90;0.80;;;7.40;97.30;;;;;;4941096;28;20657;-73
2024/02/19 06:57:57;;;;;;;1.20;1.10;;;7.40;97.30;;;;;;4940026;29;20460;-64
2024/02/19 07:00:23;;;;;;;0.90;0.80;;;7.30;97.30;;;;;;4931858;29;20196;-74
2024/02/19 07:02:48;;;;;;;1.10;1.00;;;7.30;97.30;;;;;;4932396;29;20199;-70
2024/02/19 07:05:14;;;;;;;0.90;0.80;;;7.30;97.30;;;;;;4938390;29;20589;-73
2024/02/19 07:07:40;;;;;;;1.00;0.90;;;7.30;97.30;;;;;;4933312;29;20203;-68
2024/02/19 07:10:06;;;;;;;0.80;0.70;;;7.30;97.30;;;;;;4940383;28;20191;-68
2024/02/19 07:12:32;;;;;;;5.50;4.07;;;7.30;97.30;;;;;;4932528;29;20843;-67
2024/02/19 07:14:57;;;;;;;1.17;1.13;;;7.30;97.30;;;;;;4933730;29;20611;-69
2024/02/19 07:17:23;;;;;;;1.00;0.90;;;7.30;97.30;;;;;;4941072;29;20208;-69
2024/02/19 07:19:50;;;;;;;1.23;1.13;;;7.30;97.30;;;;;;4932201;29;20188;-68
2024/02/19 07:22:15;;;;;;;0.90;0.80;;;7.30;97.30;;;;;;4931307;29;20239;-71
2024/02/19 07:24:41;;;;;;;1.00;1.00;;;7.30;97.30;;;;;;4931982;29;20442;-75
2024/02/19 07:27:07;;;;;;;0.70;0.70;;;7.30;97.30;;;;;;4933149;29;20191;-71
2024/02/19 07:29:32;;;;;;;0.90;0.80;;;7.40;97.30;;;;;;4931577;29;20585;-71
2024/02/19 07:31:58;;;;;;;0.90;0.80;;;7.40;97.30;;;;;;4938967;29;20219;-76
2024/02/19 07:34:23;;;;;;;2.10;1.00;;;7.40;97.30;;;;;;4935951;29;20199;-71
2024/02/19 07:36:49;;;;;;;0.93;0.83;;;7.40;97.30;;;;;;4937788;29;20288;-73
2024/02/19 07:39:15;;;;;;;0.90;0.80;;;7.40;97.30;;;;;;4933099;29;20184;-70
2024/02/19 07:41:41;;;;;;;0.97;0.87;;;7.50;97.30;;;;;;4932800;29;20525;-68
2024/02/19 07:44:07;;;;;;;1.00;0.90;;;7.50;97.30;;;;;;4940802;29;20927;-71
2024/02/19 07:46:32;;;;;;;1.20;1.10;;;7.50;97.30;;;;;;4931305;29;20184;-70
2024/02/19 07:48:58;;;;;;;1.00;0.90;;;7.50;97.30;;;;;;4931651;29;20215;-72
2024/02/19 07:51:23;;;;;;;1.20;1.10;;;7.50;97.30;;;;;;4939077;29;20203;-73
2024/02/19 07:53:49;;;;;;;1.10;1.00;;;7.50;97.30;;;;;;4931168;29;20270;-73
2024/02/19 07:56:14;;;;;;;1.00;0.90;;;7.40;97.30;;;;;;4932195;29;20327;-69
2024/02/19 07:58:40;;;;;;;1.00;0.90;;;7.40;97.30;;;;;;4935818;29;20264;-72
2024/02/19 08:01:06;;;;;;;0.90;0.80;;;7.40;97.30;;;;;;4937269;29;20208;-70
2024/02/19 08:03:32;;;;;;;0.90;0.80;;;7.40;97.30;;;;;;4940462;29;20195;-70
2024/02/19 08:05:58;;;;;;;1.00;0.90;;;7.40;97.30;;;;;;4932577;29;20947;-74
2024/02/19 08:08:24;;;;;;;0.83;0.73;;;7.40;97.30;;;;;;4933209;29;20970;-73
2024/02/19 08:10:51;;;;;;;1.13;1.03;;;7.50;97.30;;;;;;4939130;28;20343;-75
2024/02/19 08:13:16;;;;;;;1.00;0.90;;;7.40;97.30;;;;;;4931074;29;20444;-76
2024/02/19 08:15:42;;;;;;;0.90;0.80;;;7.50;97.30;;;;;;4935704;29;20432;-72
2024/02/19 08:18:08;;;;;;;1.00;0.90;;;7.40;97.30;;;;;;4927684;29;20263;-70
2024/02/19 08:20:38;;;;;;;1.00;0.90;;;7.40;97.30;;;;;;4931389;29;20688;-79
2024/02/19 08:23:04;;;;;;;1.00;0.90;;;7.40;97.30;;;;;;4931480;29;20519;-72
2024/02/19 08:25:30;;;;;;;1.00;0.90;;;7.40;97.30;;;;;;4932230;29;20457;-72
2024/02/19 08:27:56;;;;;;;1.00;0.90;;;7.40;97.30;;;;;;4932024;29;20466;-74
2024/02/19 08:30:21;;;;;;;1.00;0.90;;;7.50;97.30;;;;;;4931703;29;20435;-70
2024/02/19 08:32:47;;;;;;;0.97;0.87;;;7.50;97.30;;;;;;4946995;28;20606;-75
2024/02/19 08:35:12;;;;;;;0.90;0.80;;;7.50;97.30;;;;;;4938526;29;20833;-70
2024/02/19 08:37:38;;;;;;;0.90;0.80;;;7.50;97.30;;;;;;4930569;29;20851;-78
2024/02/19 08:40:08;;;;;;;2.60;1.13;;;7.50;97.30;;;;;;4928668;29;20242;-73
2024/02/19 08:42:35;;;;;;;1.10;1.00;;;7.60;97.30;;;;;;4932895;29;20199;-73
2024/02/19 08:45:03;;;;;;;0.97;0.87;;;7.60;97.30;;;;;;4941630;28;20520;-67
2024/02/19 08:47:28;;;;;;;1.00;0.90;;;7.60;97.30;;;;;;4932835;28;20852;-78
2024/02/19 08:49:54;;;;;;;0.80;0.70;;;7.70;97.30;;;;;;4931702;29;20523;-71
2024/02/19 08:52:19;;;;;;;0.90;0.80;;;7.70;97.30;;;;;;4931355;29;20615;-70
2024/02/19 08:54:45;;;;;;;0.93;0.83;;;7.70;97.30;;;;;;4931422;29;20258;-73
2024/02/19 08:57:11;;;;;;;1.00;0.90;;;7.70;97.30;;;;;;4931440;29;20564;-69
2024/02/19 08:59:37;;;;;;;1.00;0.90;;;7.70;97.30;;;;;;4930723;29;20431;-75
2024/02/19 09:02:03;;;;;;;0.90;0.80;;;7.70;97.30;;;;;;4931142;29;20230;-71
2024/02/19 09:04:29;;;;;;;1.00;0.90;;;7.70;97.30;;;;;;4945297;29;20442;-69
2024/02/19 09:06:55;;;;;;;1.00;0.90;;;7.80;97.30;;;;;;4939145;29;20187;-77
2024/02/19 09:09:20;;;;;;;0.90;0.80;;;7.80;97.30;;;;;;4939360;29;20467;-74
2024/02/19 09:11:46;;;;;;;1.00;0.90;;;7.90;97.30;;;;;;4931467;29;20200;-77
2024/02/19 09:14:11;;;;;;;0.97;0.87;;;7.90;97.30;;;;;;4930830;29;20183;-74
2024/02/19 09:16:37;;;;;;;0.90;0.80;;;8.00;97.30;;;;;;4938505;29;20183;-78
2024/02/19 09:19:06;;;;;;;0.90;0.80;;;8.00;97.30;;;;;;4927086;29;20224;-75
2024/02/19 09:21:32;;;;;;;0.90;0.80;;;8.00;97.30;;;;;;4937263;28;20235;-74
2024/02/19 09:23:57;;;;;;;0.87;0.77;;;8.10;97.30;;;;;;4937743;29;20964;-70
2024/02/19 09:26:23;;;;;;;0.90;0.80;;;8.20;97.30;;;;;;4939305;29;20865;-75
2024/02/19 09:28:48;;;;;;;0.90;0.80;;;8.20;97.30;;;;;;4931342;29;20219;-71
2024/02/19 09:31:14;;;;;;;0.90;0.80;;;8.30;97.30;;;;;;4930060;29;20200;-70
2024/02/19 09:33:40;;;;;;;0.90;0.80;;;8.30;97.30;;;;;;4930883;29;20180;-71
2024/02/19 09:36:07;;;;;;;1.00;0.90;;;8.40;97.30;;;;;;4931135;29;20772;-72
2024/02/19 09:38:32;;;;;;;1.00;0.90;;;8.40;97.30;;;;;;4935774;29;20191;-71
2024/02/19 09:40:59;;;;;;;1.20;1.10;;;8.40;97.30;;;;;;4934594;29;20450;-75
2024/02/19 09:43:25;;;;;;;0.90;0.80;;;8.40;97.30;;;;;;4939924;28;20182;-70
2024/02/19 09:45:50;;;;;;;0.80;0.70;;;8.50;97.30;;;;;;4946467;28;20527;-72
2024/02/19 09:48:21;;;;;;;0.90;0.80;;;8.60;97.30;;;;;;4953608;29;20227;-75
2024/02/19 09:50:48;;;;;;;0.90;0.80;;;8.60;97.30;;;;;;4948504;29;20203;-70
2024/02/19 09:53:27;;;;;;;0.90;0.80;;;8.60;97.30;;;;;;4944753;29;20427;-72
2024/02/19 09:55:52;;;;;;;0.90;0.80;;;8.60;97.30;;;;;;4943452;29;20985;-71
2024/02/19 09:58:18;;;;;;;1.80;1.00;;;8.70;97.30;;;;;;4945582;29;20431;-72
2024/02/19 10:00:44;;;;;;;1.00;0.90;;;8.70;97.30;;;;;;4945027;28;20212;-70
2024/02/19 10:03:10;;;;;;;1.73;1.10;;;8.70;97.30;;;;;;4933393;29;20739;-71
2024/02/19 10:05:36;;;;;;;1.03;0.93;;;8.80;97.30;;;;;;4945083;29;20193;-67
2024/02/19 10:08:05;;;;;;;0.80;0.70;;;8.80;97.30;;;;;;4946868;28;20463;-68
2024/02/19 10:10:32;;;;;;;1.00;0.90;;;8.90;97.30;;;;;;4949439;28;20715;-70
2024/02/19 10:12:58;;;;;;;4.53;1.30;;;8.90;97.30;;;;;;4941218;29;20441;-72
2024/02/19 10:15:23;;;;;;;1.00;0.90;;;8.90;97.30;;;;;;4939697;29;20811;-70
2024/02/19 10:17:49;;;;;;;1.00;0.90;;;9.00;97.30;;;;;;4925116;29;20180;-74
2024/02/19 10:20:15;;;;;;;1.33;1.00;;;9.10;97.30;;;;;;4939702;29;20190;-70
2024/02/19 10:22:40;;;;;;;1.00;0.90;;;9.10;97.30;;;;;;4950568;29;20257;-76
2024/02/19 10:25:11;;;;;;;0.73;0.67;;;9.20;97.30;;;;;;4940010;29;20188;-73
2024/02/19 10:27:37;;;;;;;0.87;0.77;;;9.30;97.30;;;;;;4942387;29;20690;-71
2024/02/19 10:30:07;;;;;;;1.00;0.90;;;9.30;97.30;;;;;;4933504;29;20545;-72
2024/02/19 10:32:32;;;;;;;1.37;1.30;;;9.30;97.30;;;;;;4933677;29;20518;-71
2024/02/19 10:34:58;;;;;;;1.00;0.90;;;9.30;97.30;;;;;;4941180;29;20523;-73
2024/02/19 10:37:23;;;;;;;1.00;0.90;;;9.20;97.30;;;;;;4937720;29;20222;-71
2024/02/19 10:39:49;;;;;;;0.90;0.80;;;9.20;97.30;;;;;;4947021;29;20176;-70
2024/02/19 10:42:15;;;;;;;1.13;0.90;;;9.20;97.30;;;;;;4937919;28;20202;-67
2024/02/19 10:44:41;;;;;;;1.20;1.10;;;9.30;97.30;;;;;;4944882;29;20175;-84
2024/02/19 10:47:08;;;;;;;1.63;1.17;;;9.40;97.30;;;;;;4941651;29;20179;-83
2024/02/19 10:49:34;;;;;;;0.80;0.70;;;9.40;97.30;;;;;;4934322;29;20482;-88
2024/02/19 10:51:59;;;;;;;0.80;0.70;;;9.50;97.30;;;;;;4941368;28;20451;-76
2024/02/19 10:54:26;;;;;;;1.00;0.90;;;9.60;97.30;;;;;;4936957;29;20303;-82
2024/02/19 10:56:52;;;;;;;0.90;0.80;;;9.70;97.30;;;;;;4928214;29;20238;-67
2024/02/19 10:59:18;;;;;;;0.90;0.80;;;9.70;97.30;;;;;;4941123;29;20809;-74
2024/02/19 11:01:48;;;;;;;0.80;0.70;;;9.70;97.30;;;;;;4933535;29;20819;-74
2024/02/19 11:04:19;;;;;;;0.90;0.80;;;9.70;97.30;;;;;;4941337;29;20195;-84
2024/02/19 11:06:52;;;;;;;0.80;0.70;;;9.70;97.30;;;;;;4941547;29;20533;-74
2024/02/19 11:09:18;;;;;;;0.90;0.80;;;9.70;97.30;;;;;;4938595;29;20459;-88
2024/02/19 11:11:57;;;;;;;0.90;0.80;;;9.70;97.30;;;;;;4940026;29;20469;-87
2024/02/19 11:14:23;;;;;;;1.10;1.00;;;9.70;97.30;;;;;;4939536;29;20431;-80
2024/02/19 11:16:50;;;;;;;0.87;0.77;;;9.70;97.30;;;;;;4927328;28;20444;-75
2024/02/19 11:19:18;;;;;;;0.90;0.80;;;9.60;97.30;;;;;;4938959;29;20514;-74
2024/02/19 11:21:44;;;;;;;0.90;0.80;;;9.60;97.30;;;;;;4949991;28;20481;-74
2024/02/19 11:24:10;;;;;;;0.90;0.80;;;9.60;97.30;;;;;;4944851;28;20446;-72
2024/02/19 11:26:43;;;;;;;1.00;0.90;;;9.60;97.30;;;;;;4940446;29;20998;-73
2024/02/19 11:29:15;;;;;;;1.57;0.90;;;9.70;97.30;;;;;;4948935;28;20211;-75
2024/02/19 11:31:41;;;;;;;0.90;0.80;;;9.70;97.30;;;;;;4952148;28;20446;-74
2024/02/19 11:34:20;;;;;;;8.80;0.90;;;9.80;97.30;;;;;;4949400;29;20465;-73
2024/02/19 11:36:46;;;;;;;0.90;0.80;;;9.90;97.30;;;;;;4952276;28;20426;-71
2024/02/19 11:39:13;;;;;;;0.90;0.80;;;10.00;97.30;;;;;;4947819;29;20943;-74
2024/02/19 11:41:42;;;;;;;0.80;0.70;;;10.10;97.30;;;;;;4952140;28;20478;-75
2024/02/19 11:44:12;;;;;;;0.80;0.70;;;10.20;97.30;;;;;;4950122;28;20442;-76
2024/02/19 11:46:37;;;;;;;0.90;0.80;;;10.30;97.30;;;;;;4952370;28;20439;-72
2024/02/19 11:49:03;;;;;;;0.90;0.80;;;10.40;97.30;;;;;;4949894;29;20473;-72
2024/02/19 11:51:29;;;;;;;0.70;0.70;;;10.40;97.30;;;;;;4950775;28;20762;-73
2024/02/19 11:53:54;;;;;;;0.90;0.80;;;10.30;97.30;;;;;;4949854;28;20202;-71
2024/02/19 11:56:20;;;;;;;0.90;0.80;;;10.30;97.30;;;;;;4950719;29;20306;-71
2024/02/19 11:58:52;;;;;;;3.60;1.33;;;10.30;97.30;;;;;;4950106;29;20275;-72
2024/02/19 12:01:20;;;;;;;26.83;1.07;;;10.30;97.30;;;;;;4951779;28;20203;-72
2024/02/19 12:03:46;;;;;;;0.80;0.70;;;10.20;97.30;;;;;;4949463;28;20854;-71
2024/02/19 12:06:12;;;;;;;1.20;1.10;;;10.20;97.30;;;;;;4952078;29;20982;-72
2024/02/19 12:08:39;;;;;;;1.10;1.00;;;10.10;97.30;;;;;;4948036;28;20687;-71
2024/02/19 12:11:06;;;;;;;0.90;0.80;;;10.00;97.30;;;;;;4951925;28;20199;-72
2024/02/19 12:13:32;;;;;;;0.80;0.70;;;9.90;97.30;;;;;;4949476;29;20435;-71
2024/02/19 12:15:58;;;;;;;0.90;0.80;;;9.90;97.30;;;;;;4951493;28;20419;-81
2024/02/19 12:18:24;;;;;;;0.80;0.70;;;9.80;97.30;;;;;;4951639;28;20517;-73
2024/02/19 12:20:50;;;;;;;0.90;0.80;;;9.80;97.30;;;;;;4950198;28;20949;-77
2024/02/19 12:23:15;;;;;;;0.87;0.77;;;9.70;97.30;;;;;;4943778;29;20262;-75
2024/02/19 12:25:41;;;;;;;0.90;0.80;;;9.70;97.30;;;;;;4950909;28;20562;-77
2024/02/19 12:28:07;;;;;;;0.80;0.70;;;9.70;97.30;;;;;;4947690;29;20617;-73
2024/02/19 12:30:32;;;;;;;0.90;0.80;;;9.70;97.30;;;;;;4935655;28;20438;-76
2024/02/19 12:32:58;;;;;;;0.90;0.80;;;9.80;97.30;;;;;;4950873;29;20206;-73
2024/02/19 12:35:23;;;;;;;0.83;0.73;;;9.80;97.30;;;;;;4939472;29;20238;-76
2024/02/19 12:37:49;;;;;;;0.90;0.80;;;9.80;97.30;;;;;;4950669;29;20179;-77
2024/02/19 12:40:14;;;;;;;0.90;0.80;;;9.90;97.30;;;;;;4941502;28;20183;-71
2024/02/19 12:43:14;;;;;;;0.90;0.80;;;9.90;97.30;;;;;;4967508;23;20539;-95
2024/02/19 12:45:54;;;;;;;1.00;0.90;;;10.00;97.30;;;;;;4963221;28;20222;-88
2024/02/19 12:48:35;;;;;;;0.73;0.67;;;10.00;97.30;;;;;;4954471;28;20560;-88
2024/02/19 12:54:34;;;;;;;0.90;0.80;;;10.00;97.30;;;;;;4887070;29;20602;-86
2024/02/19 12:57:05;;;;;;;0.90;0.80;;;10.00;97.30;;;;;;4905552;29;20450;-85
2024/02/19 12:59:33;;;;;;;1.20;1.10;;;10.00;97.30;;;;;;4909313;29;20870;-85
2024/02/19 13:02:15;;;;;;;0.93;0.83;;;9.90;97.30;;;;;;4912792;29;20431;-87
2024/02/19 13:05:07;;;;;;;;;;;;;;;;;;;;;
2024/02/19 13:07:47;;;;;;;0.90;0.80;;;9.80;97.30;;;;;;4955002;29;20419;-88
2024/02/19 13:10:26;;;;;;;;;;;;;;;;;;;;;
2024/02/19 13:12:55;;;;;;;0.90;0.80;;;9.80;97.30;;;;;;4941920;28;20454;-85
2024/02/19 13:19:06;;;;;;;1.47;1.00;;;9.70;97.30;;;;;;4942584;28;20419;-86
2024/02/19 13:21:34;;;;;;;1.43;1.33;;;9.80;97.30;;;;;;4937902;29;20439;-89
2024/02/19 13:24:23;;;;;;;1.00;0.90;;;9.90;97.30;;;;;;4944743;29;20450;-89
2024/02/19 13:27:45;;;;;;;0.90;0.80;;;10.50;97.30;;;;;;4946157;29;20435;-87
2024/02/19 13:30:25;;;;;;;0.90;0.80;;;11.20;97.30;;;;;;4905318;29;20428;-85
2024/02/19 13:33:06;;;;;;;;;;;;;;;;;;;;;
2024/02/19 13:35:37;;;;;;;0.90;0.80;;;10.80;97.30;;;;;;4905924;29;20443;-85
2024/02/19 13:38:16;;;;;;;0.80;0.70;;;10.70;97.30;;;;;;4905847;29;20459;-88
2024/02/19 13:40:45;;;;;;;1.33;1.23;;;10.50;97.30;;;;;;4924229;29;20439;-88
2024/02/19 13:43:44;;;;;;;0.90;0.80;;;10.50;97.30;;;;;;4942425;29;20474;-87
2024/02/19 13:47:03;;;;;;;;;;;;;;;;;;;;;
2024/02/19 13:50:04;;;;;;;0.90;0.80;;;10.20;97.30;;;;;;4939703;29;20496;-86
2024/02/19 13:52:45;;;;;;;0.80;0.70;;;10.20;97.30;;;;;;4942964;29;20439;-88
2024/02/19 13:55:45;;;;;;;0.80;0.70;;;10.10;97.30;;;;;;4964688;28;20494;-88
2024/02/19 13:58:43;;;;;;;1.43;1.13;;;10.20;97.30;;;;;;4949165;29;20941;-90
2024/02/19 14:01:16;;;;;;;0.80;0.70;;;10.20;97.30;;;;;;4947691;29;20431;-87
2024/02/19 14:03:47;;;;;;;0.90;0.80;;;10.30;97.30;;;;;;4940969;28;20446;-88
2024/02/19 14:06:34;;;;;;;1.03;0.93;;;10.20;97.30;;;;;;4949770;28;20431;-88
2024/02/19 14:09:14;;;;;;;0.83;0.73;;;10.20;97.30;;;;;;4950487;28;20816;-86
2024/02/19 14:11:55;;;;;;;0.90;0.80;;;10.30;97.30;;;;;;4942350;29;20435;-87
2024/02/19 14:14:24;;;;;;;0.90;0.80;;;10.30;97.30;;;;;;4938325;29;20453;-88
2024/02/19 14:17:05;;;;;;;0.80;0.70;;;10.40;97.30;;;;;;4950921;29;20433;-87
2024/02/19 14:19:43;;;;;;;6.40;2.27;;;10.30;97.30;;;;;;4941086;29;20533;-87
2024/02/19 14:22:14;;;;;;;0.90;0.80;;;10.40;97.30;;;;;;4946933;29;20434;-87
2024/02/19 14:24:54;;;;;;;0.93;0.83;;;10.60;97.30;;;;;;4946908;29;20844;-87
2024/02/19 14:27:57;;;;;;;;;;;;;;;;;;;;;
2024/02/19 14:30:34;;;;;;;0.90;0.80;;;11.70;97.30;;;;;;4949037;28;20435;-87
2024/02/19 14:33:03;;;;;;;0.80;0.70;;;11.50;97.30;;;;;;4952192;29;20900;-87
2024/02/19 14:35:35;;;;;;;0.90;0.80;;;11.10;97.30;;;;;;4939925;29;20432;-88
2024/02/19 14:38:06;;;;;;;0.97;0.87;;;10.90;97.30;;;;;;4952243;29;20957;-87
2024/02/19 14:44:15;;;;;;;1.83;1.50;;;10.70;97.30;;;;;;4912916;29;20589;-86
2024/02/19 14:47:03;;;;;;;1.00;0.90;;;10.80;97.30;;;;;;4913708;29;20438;-87
2024/02/19 14:49:35;;;;;;;0.80;0.70;;;10.70;97.30;;;;;;4880004;29;20844;-87
2024/02/19 14:52:33;;;;;;;4.00;2.53;;;10.60;97.30;;;;;;4896769;29;20940;-88
2024/02/19 14:55:25;;;;;;;0.90;0.80;;;10.40;97.30;;;;;;4898897;29;20800;-88
2024/02/19 14:58:24;;;;;;;0.83;0.73;;;10.20;97.30;;;;;;4878952;29;20422;-88
2024/02/19 15:00:52;;;;;;;2.83;0.90;;;10.00;97.30;;;;;;4886104;29;20467;-89
2024/02/19 15:03:55;;;;;;;0.83;0.73;;;9.90;97.30;;;;;;4936345;29;20448;-87
2024/02/19 15:06:59;;;;;;;3.13;2.47;;;9.80;97.30;;;;;;4929535;29;20419;-88
2024/02/19 15:12:45;;;;;;;1.30;1.20;;;9.70;97.30;;;;;;4934932;29;20423;-87
2024/02/19 15:15:35;;;;;;;1.00;0.90;;;9.70;97.30;;;;;;4943593;29;20416;-88
2024/02/19 15:18:04;;;;;;;0.90;0.80;;;9.60;97.30;;;;;;4950445;28;20423;-86
2024/02/19 15:20:35;;;;;;;0.90;0.90;;;9.60;97.30;;;;;;4934602;29;20456;-86
2024/02/19 15:23:24;;;;;;;1.00;0.90;;;9.50;97.30;;;;;;4950319;28;20534;-87
2024/02/19 15:26:03;;;;;;;0.90;0.80;;;9.50;97.30;;;;;;4950686;28;20438;-87
2024/02/19 15:28:35;;;;;;;1.00;0.90;;;9.50;97.30;;;;;;4928941;29;20467;-87
2024/02/19 15:31:03;;;;;;;0.90;0.80;;;9.50;97.30;;;;;;4933631;29;20450;-87
2024/02/19 15:33:55;;;;;;;0.90;0.80;;;9.50;97.30;;;;;;4948782;28;20439;-87
2024/02/19 15:39:45;;;;;;;1.30;1.20;;;9.40;97.30;;;;;;4911286;29;20429;-87
2024/02/19 15:42:13;;;;;;;0.90;0.80;;;9.50;97.30;;;;;;4911970;29;20511;-87
2024/02/19 15:45:35;;;;;;;0.90;0.80;;;9.50;97.30;;;;;;4911663;29;20473;-86
2024/02/19 15:48:04;;;;;;;0.87;0.77;;;9.50;97.30;;;;;;4879329;29;20489;-87
2024/02/19 15:51:01;;;;;;;1.00;0.90;;;9.60;97.30;;;;;;4879236;29;20432;-87
2024/02/19 15:53:56;;;;;;;0.90;0.80;;;9.50;97.30;;;;;;4893377;29;20507;-87
2024/02/19 15:56:35;;;;;;;0.90;0.80;;;9.60;97.30;;;;;;4917993;29;20428;-87
2024/02/19 15:59:35;;;;;;;0.90;0.80;;;9.60;97.30;;;;;;4935037;29;20482;-87
2024/02/19 16:02:15;;;;;;;1.00;0.90;;;9.60;97.30;;;;;;4951686;28;20427;-87
2024/02/19 16:07:34;;;;;;;1.00;0.90;;;9.60;97.30;;;;;;4931680;29;20416;-87
2024/02/19 16:10:14;;;;;;;0.90;0.80;;;9.60;97.30;;;;;;4950373;28;20463;-87
2024/02/19 16:12:53;;;;;;;0.87;0.80;;;9.60;97.30;;;;;;4936791;29;20262;-86
2024/02/19 16:15:45;;;;;;;0.87;0.77;;;9.60;97.30;;;;;;4937520;29;20458;-86
2024/02/19 16:18:13;;;;;;;1.00;0.90;;;9.60;97.30;;;;;;4942503;28;20432;-86
2024/02/19 16:20:49;;;;;;;1.00;0.90;;;9.60;97.30;;;;;;4951317;28;20431;-86
2024/02/19 16:23:14;;;;;;;1.20;1.10;;;9.50;97.30;;;;;;4934307;29;20474;-86
2024/02/19 16:25:46;;;;;;;1.00;0.90;;;9.50;97.30;;;;;;4949229;28;20923;-87
2024/02/19 16:28:15;;;;;;;1.50;1.37;;;9.50;97.30;;;;;;4932900;29;20685;-87
2024/02/19 16:30:46;;;;;;;0.90;0.80;;;9.50;97.30;;;;;;4933692;29;20426;-87
2024/02/19 16:33:15;;;;;;;0.90;0.80;;;9.50;97.30;;;;;;4932791;29;20443;-87
2024/02/19 16:36:16;;;;;;;0.80;0.70;;;9.50;97.30;;;;;;4948354;28;20423;-87
2024/02/19 16:38:53;;;;;;;0.90;0.80;;;9.40;97.30;;;;;;4933939;29;20922;-86
2024/02/19 16:41:44;;;;;;;0.80;0.70;;;9.40;97.30;;;;;;4948695;28;20790;-87
2024/02/19 16:44:35;;;;;;;0.80;0.70;;;9.40;97.30;;;;;;4948110;28;21064;-86
2024/02/19 16:47:25;;;;;;;1.00;0.90;;;9.30;97.30;;;;;;4948097;28;20484;-87
2024/02/19 16:50:24;;;;;;;0.90;0.80;;;9.30;97.30;;;;;;4941802;28;20775;-85
2024/02/19 16:53:04;;;;;;;0.87;0.77;;;9.30;97.30;;;;;;4933660;29;20833;-87
2024/02/19 16:55:34;;;;;;;0.87;0.83;;;9.30;97.30;;;;;;4926146;29;20454;-87
2024/02/19 16:58:05;;;;;;;0.90;0.80;;;9.30;97.30;;;;;;4934353;29;20451;-88
2024/02/19 17:00:34;;;;;;;0.97;0.87;;;9.20;97.30;;;;;;4936381;29;20452;-87
2024/02/19 17:03:08;;;;;;;0.80;0.70;;;9.20;97.30;;;;;;4951916;28;20455;-88
2024/02/19 17:05:34;;;;;;;1.40;1.23;;;9.30;97.30;;;;;;4958482;28;20447;-89
2024/02/19 17:08:35;;;;;;;3.73;0.97;;;9.30;97.30;;;;;;4953353;29;20463;-86
2024/02/19 17:11:15;;;;;;;2.30;1.63;;;9.20;97.30;;;;;;4932818;29;20187;-87
2024/02/19 17:14:15;;;;;;;0.90;0.80;;;9.20;97.30;;;;;;4938541;28;20444;-87
2024/02/19 17:16:56;;;;;;;1.00;0.90;;;9.20;97.30;;;;;;4934243;29;20450;-87
2024/02/19 17:19:25;;;;;;;3.00;2.80;;;9.20;97.30;;;;;;4943481;29;20476;-86
2024/02/19 17:22:25;;;;;;;1.43;1.40;;;9.20;97.30;;;;;;4935697;29;20427;-87
2024/02/19 17:24:54;;;;;;;1.10;1.00;;;9.20;97.30;;;;;;4936398;29;20466;-86
2024/02/19 17:27:34;;;;;;;1.00;0.90;;;9.10;97.30;;;;;;4950432;29;20426;-88
2024/02/19 17:30:16;;;;;;;1.10;1.00;;;9.10;97.30;;;;;;4934642;29;20475;-87
2024/02/19 17:32:42;;;;;;;0.90;0.80;;;9.10;97.30;;;;;;4932162;29;20431;-87
2024/02/19 17:35:15;;;;;;;1.47;1.37;;;9.10;97.30;;;;;;4941217;29;20627;-86
2024/02/19 17:37:44;;;;;;;0.93;0.87;;;9.10;97.30;;;;;;4959205;28;20194;-86
2024/02/19 17:40:15;;;;;;;0.90;0.80;;;9.10;97.30;;;;;;4933488;29;20927;-87
2024/02/19 17:42:46;;;;;;;0.90;0.80;;;9.10;97.30;;;;;;4932162;29;20432;-86
2024/02/19 17:45:14;;;;;;;0.80;0.70;;;9.10;97.30;;;;;;4933940;29;20522;-86
2024/02/19 17:48:37;;;;;;;0.90;0.80;;;9.00;97.30;;;;;;4941068;29;20886;-86
2024/02/19 17:51:16;;;;;;;;;;;;;;;;;;;;;
2024/02/19 17:53:45;;;;;;;0.93;0.83;;;9.10;97.30;;;;;;4933216;29;20435;-87
2024/02/19 17:56:33;;;;;;;0.80;0.70;;;9.10;97.30;;;;;;4941811;29;20447;-87
2024/02/19 17:59:14;;;;;;;1.57;1.47;;;9.10;97.30;;;;;;4950697;29;20442;-87
2024/02/19 18:02:24;;;;;;;0.90;0.80;;;9.10;97.30;;;;;;4939859;29;20415;-87
2024/02/19 18:05:06;;;;;;;;;;;;;;;;;;;;;
2024/02/19 18:07:35;;;;;;;1.03;0.93;;;9.10;97.30;;;;;;4911630;29;20440;-87
2024/02/19 18:10:45;;;;;;;1.90;1.43;;;9.20;97.30;;;;;;4898952;29;20523;-86
2024/02/19 18:13:14;;;;;;;1.10;1.00;;;9.20;97.30;;;;;;4928582;29;20443;-86
2024/02/19 18:15:45;;;;;;;2.60;1.27;;;9.10;97.30;;;;;;4965129;28;20431;-88
2024/02/19 18:18:15;;;;;;;1.00;0.90;;;9.20;97.30;;;;;;4953923;29;20570;-86
2024/02/19 18:21:25;;;;;;;1.03;0.93;;;9.20;97.30;;;;;;4948556;29;20428;-87
2024/02/19 18:24:08;;;;;;;1.73;1.63;;;9.20;97.30;;;;;;4898575;29;20447;-87
2024/02/19 18:26:35;;;;;;;0.87;0.77;;;9.20;97.30;;;;;;4908563;29;20500;-86
2024/02/19 18:29:13;;;;;;;2.03;1.10;;;9.20;97.30;;;;;;4914088;29;20519;-87
2024/02/19 18:31:50;;;;;;;4.60;2.00;;;9.20;97.30;;;;;;4902099;29;20420;-86
2024/02/19 18:34:15;;;;;;;2.93;1.00;;;9.20;97.30;;;;;;4943752;29;20537;-87
2024/02/19 18:36:44;;;;;;;3.80;1.20;;;9.20;97.30;;;;;;4936205;29;20506;-87
2024/02/19 18:39:16;;;;;;;1.13;1.03;;;9.20;97.30;;;;;;4942670;29;20179;-87
2024/02/19 18:41:45;;;;;;;1.87;1.80;;;9.10;97.30;;;;;;4943227;29;20446;-87
2024/02/19 18:44:14;;;;;;;1.63;1.00;;;9.20;97.30;;;;;;4946204;29;20498;-86
2024/02/19 18:46:54;;;;;;;1.30;0.93;;;9.20;97.30;;;;;;4943390;29;20855;-86
2024/02/19 18:49:25;;;;;;;1.00;0.90;;;9.10;97.30;;;;;;4938610;29;20485;-87